createdAt,value
2018-07-30T00:02:19.237Z,24.27
2018-07-30T00:04:47.500Z,24.31
2018-07-30T00:07:15.805Z,24.31
2018-07-30T00:09:44.065Z,24.27
2018-07-30T00:12:12.345Z,24.23
2018-07-30T00:14:40.642Z,24.34
2018-07-30T00:17:08.977Z,24.39
2018-07-30T00:19:38.241Z,24.38
2018-07-30T00:22:06.556Z,24.29
2018-07-30T00:24:34.837Z,24.39
2018-07-30T00:27:03.109Z,24.31
2018-07-30T00:29:31.414Z,24.56
2018-07-30T00:31:59.696Z,24.38
2018-07-30T00:34:27.993Z,24.33
2018-07-30T00:36:56.284Z,24.38
2018-07-30T00:39:24.686Z,24.36
2018-07-30T00:41:52.995Z,24.33
2018-07-30T00:44:21.321Z,24.24
2018-07-30T00:46:49.585Z,24.27
2018-07-30T00:49:17.873Z,24.30
2018-07-30T00:51:46.160Z,24.14
2018-07-30T00:54:15.540Z,24.06
2018-07-30T00:56:43.849Z,24.17
2018-07-30T00:59:12.152Z,24.26
2018-07-30T01:01:40.405Z,24.27
2018-07-30T01:04:08.722Z,24.28
2018-07-30T01:06:37.016Z,24.27
2018-07-30T01:09:07.705Z,24.37
2018-07-30T01:11:36.029Z,24.30
2018-07-30T01:14:04.301Z,24.31
2018-07-30T01:16:32.637Z,24.28
2018-07-30T01:19:00.903Z,24.30
2018-07-30T01:21:29.231Z,24.29
2018-07-30T01:23:57.474Z,24.24
2018-07-30T01:26:27.682Z,24.21
2018-07-30T01:28:56.725Z,24.27
2018-07-30T01:31:25.053Z,24.30
2018-07-30T01:33:53.781Z,24.25
2018-07-30T01:36:22.126Z,24.21
2018-07-30T01:38:51.877Z,24.23
2018-07-30T01:41:20.371Z,24.57
2018-07-30T01:43:50.677Z,24.37
2018-07-30T01:46:19.980Z,24.29
2018-07-30T01:48:49.262Z,24.27
2018-07-30T01:51:17.560Z,24.23
2018-07-30T01:53:45.831Z,24.18
2018-07-30T01:56:14.138Z,24.23
2018-07-30T01:58:43.392Z,24.23
2018-07-30T02:01:11.685Z,24.25
2018-07-30T02:03:40.006Z,24.24
2018-07-30T02:06:08.304Z,24.21
2018-07-30T02:08:36.603Z,24.23
2018-07-30T02:11:04.867Z,24.22
2018-07-30T02:13:33.172Z,24.24
2018-07-30T02:16:01.441Z,24.16
2018-07-30T02:18:29.749Z,24.10
2018-07-30T02:20:58.018Z,23.99
2018-07-30T02:23:26.320Z,23.81
2018-07-30T02:25:55.666Z,23.79
2018-07-30T02:28:23.997Z,23.77
2018-07-30T02:30:52.254Z,23.80
2018-07-30T02:33:20.715Z,23.78
2018-07-30T02:35:49.041Z,23.76
2018-07-30T02:38:18.412Z,23.73
2018-07-30T02:40:46.720Z,23.71
2018-07-30T02:43:14.973Z,23.71
2018-07-30T02:45:43.325Z,23.72
2018-07-30T02:48:11.593Z,23.75
2018-07-30T02:50:39.929Z,23.71
2018-07-30T02:53:08.203Z,23.77
2018-07-30T02:55:36.525Z,23.73
2018-07-30T02:58:05.922Z,23.80
2018-07-30T03:00:34.261Z,23.85
2018-07-30T03:03:03.609Z,23.93
2018-07-30T03:05:31.901Z,23.98
2018-07-30T03:08:00.193Z,23.91
2018-07-30T03:10:28.468Z,23.94
2018-07-30T03:12:56.753Z,23.86
2018-07-30T03:15:25.025Z,23.88
2018-07-30T03:17:53.293Z,23.81
2018-07-30T03:20:21.565Z,23.93
2018-07-30T03:22:49.846Z,23.92
2018-07-30T03:25:19.185Z,24.02
2018-07-30T03:27:47.473Z,24.02
2018-07-30T03:30:15.775Z,23.98
2018-07-30T03:32:44.055Z,23.97
2018-07-30T03:35:12.316Z,24.01
2018-07-30T03:37:40.630Z,23.97
2018-07-30T03:40:08.924Z,23.94
2018-07-30T03:42:37.378Z,23.93
2018-07-30T03:45:08.076Z,23.86
2018-07-30T03:47:36.349Z,23.84
2018-07-30T03:50:06.402Z,23.89
2018-07-30T03:52:35.752Z,23.98
2018-07-30T03:55:04.110Z,23.88
2018-07-30T03:57:32.384Z,24.02
2018-07-30T04:00:00.686Z,23.85
2018-07-30T04:02:28.966Z,24.14
2018-07-30T04:04:59.255Z,24.09
2018-07-30T04:07:28.576Z,24.07
2018-07-30T04:09:56.845Z,24.15
2018-07-30T04:12:26.137Z,24.22
2018-07-30T04:14:55.460Z,24.23
2018-07-30T04:17:23.688Z,24.31
2018-07-30T04:19:51.969Z,24.29
2018-07-30T04:22:20.259Z,24.30
2018-07-30T04:24:48.545Z,24.36
2018-07-30T04:27:16.814Z,24.42
2018-07-30T04:29:45.101Z,24.38
2018-07-30T04:32:14.453Z,24.44
2018-07-30T04:34:42.733Z,24.64
2018-07-30T04:37:11.049Z,24.65
2018-07-30T04:39:39.337Z,24.71
2018-07-30T04:42:07.634Z,24.71
2018-07-30T04:44:35.948Z,24.78
2018-07-30T04:47:04.281Z,24.84
2018-07-30T04:49:33.581Z,24.96
2018-07-30T04:52:02.872Z,24.89
2018-07-30T04:54:31.246Z,25.07
2018-07-30T04:57:01.639Z,25.15
2018-07-30T04:59:30.877Z,25.19
2018-07-30T05:01:59.145Z,25.15
2018-07-30T05:04:27.413Z,25.17
2018-07-30T05:06:55.705Z,25.14
2018-07-30T05:09:23.959Z,25.00
2018-07-30T05:11:52.266Z,25.04
2018-07-30T05:14:20.516Z,25.15
2018-07-30T05:16:48.804Z,25.24
2018-07-30T05:19:18.111Z,25.30
2018-07-30T05:21:46.373Z,25.26
2018-07-30T05:24:14.649Z,25.24
2018-07-30T05:26:42.963Z,25.37
2018-07-30T05:29:12.228Z,25.30
2018-07-30T05:31:41.594Z,25.11
2018-07-30T05:34:09.965Z,24.94
2018-07-30T05:36:38.274Z,25.03
2018-07-30T05:39:09.286Z,25.27
2018-07-30T05:41:39.577Z,25.48
2018-07-30T05:44:07.933Z,25.60
2018-07-30T05:46:36.210Z,25.53
2018-07-30T05:49:04.732Z,25.85
2018-07-30T05:51:34.081Z,26.06
2018-07-30T05:54:02.633Z,25.90
2018-07-30T05:56:30.957Z,25.79
2018-07-30T05:58:59.267Z,25.42
2018-07-30T06:01:27.562Z,25.56
2018-07-30T06:03:56.121Z,25.52
2018-07-30T06:06:24.425Z,25.46
2018-07-30T06:08:53.121Z,25.72
2018-07-30T06:11:22.417Z,25.76
2018-07-30T06:13:50.749Z,25.76
2018-07-30T06:16:19.025Z,25.82
2018-07-30T06:18:47.310Z,25.82
2018-07-30T06:21:15.633Z,26.05
2018-07-30T06:23:44.972Z,26.10
2018-07-30T06:26:13.253Z,26.18
2018-07-30T06:28:41.603Z,26.13
2018-07-30T06:31:09.882Z,25.99
2018-07-30T06:33:39.187Z,26.01
2018-07-30T06:36:07.548Z,26.13
2018-07-30T06:38:35.843Z,26.01
2018-07-30T06:41:04.193Z,26.02
2018-07-30T06:43:32.495Z,26.10
2018-07-30T06:46:02.761Z,26.09
2018-07-30T06:48:31.096Z,26.06
2018-07-30T06:50:59.373Z,25.81
2018-07-30T06:53:28.742Z,25.96
2018-07-30T06:55:57.037Z,25.84
2018-07-30T06:58:25.341Z,25.86
2018-07-30T07:00:53.610Z,25.85
2018-07-30T07:03:21.929Z,25.83
2018-07-30T07:05:51.265Z,25.58
2018-07-30T07:08:19.584Z,25.57
2018-07-30T07:10:49.038Z,25.65
2018-07-30T07:13:17.366Z,25.63
2018-07-30T07:15:46.669Z,25.64
2018-07-30T07:18:19.128Z,25.83
2018-07-30T07:20:47.523Z,26.56
2018-07-30T07:23:15.779Z,26.71
2018-07-30T07:25:44.057Z,26.98
2018-07-30T07:28:12.826Z,27.14
2018-07-30T07:30:41.122Z,27.31
2018-07-30T07:33:10.419Z,27.40
2018-07-30T07:35:39.690Z,27.14
2018-07-30T07:38:08.234Z,26.95
2018-07-30T07:40:38.531Z,27.41
2018-07-30T07:43:06.811Z,27.61
2018-07-30T07:45:36.229Z,27.78
2018-07-30T07:48:04.571Z,27.96
2018-07-30T07:50:32.992Z,28.04
2018-07-30T07:53:01.161Z,27.81
2018-07-30T07:55:29.533Z,28.28
2018-07-30T07:57:57.817Z,27.97
2018-07-30T08:00:26.099Z,28.28
2018-07-30T08:02:54.357Z,28.48
2018-07-30T08:05:22.753Z,28.59
2018-07-30T08:07:51.049Z,28.52
2018-07-30T08:10:19.316Z,27.65
2018-07-30T08:12:47.584Z,27.71
2018-07-30T08:15:15.860Z,28.16
2018-07-30T08:17:44.156Z,28.54
2018-07-30T08:20:12.433Z,28.69
2018-07-30T08:22:40.741Z,28.85
2018-07-30T08:25:11.170Z,28.87
2018-07-30T08:27:40.706Z,29.11
2018-07-30T08:30:09.238Z,28.96
2018-07-30T08:32:37.986Z,29.09
2018-07-30T08:35:07.490Z,29.11
2018-07-30T08:37:35.874Z,28.07
2018-07-30T08:40:04.905Z,28.01
2018-07-30T08:42:33.246Z,27.91
2018-07-30T08:45:06.989Z,28.10
2018-07-30T08:47:35.338Z,28.27
2018-07-30T08:50:05.645Z,28.58
2018-07-30T08:52:34.229Z,28.94
2018-07-30T08:55:02.576Z,29.36
2018-07-30T08:57:31.998Z,29.65
2018-07-30T09:00:00.282Z,29.67
2018-07-30T09:02:28.613Z,29.53
2018-07-30T09:04:56.869Z,29.52
2018-07-30T09:07:26.155Z,29.80
2018-07-30T09:09:54.585Z,30.01
2018-07-30T09:12:23.014Z,29.55
2018-07-30T09:14:51.288Z,29.20
2018-07-30T09:17:19.659Z,28.92
2018-07-30T09:19:47.946Z,29.00
2018-07-30T09:22:16.254Z,28.85
2018-07-30T09:24:45.582Z,29.23
2018-07-30T09:27:13.865Z,29.76
2018-07-30T09:29:42.161Z,29.87
2018-07-30T09:32:10.418Z,30.17
2018-07-30T09:34:38.757Z,30.18
2018-07-30T09:37:07.064Z,29.90
2018-07-30T09:39:35.443Z,30.00
2018-07-30T09:42:03.665Z,30.38
2018-07-30T09:44:31.969Z,30.65
2018-07-30T09:47:00.221Z,31.18
2018-07-30T09:49:28.506Z,31.58
2018-07-30T09:51:56.805Z,32.02
2018-07-30T09:54:26.163Z,32.45
2018-07-30T09:56:54.442Z,32.32
2018-07-30T09:59:22.714Z,31.78
2018-07-30T10:01:51.022Z,31.53
2018-07-30T10:04:19.282Z,31.96
2018-07-30T10:06:48.603Z,31.53
2018-07-30T10:09:16.892Z,32.03
2018-07-30T10:11:45.252Z,32.35
2018-07-30T10:14:13.494Z,31.17
2018-07-30T10:16:42.645Z,31.56
2018-07-30T10:19:10.935Z,32.32
2018-07-30T10:21:39.336Z,32.22
2018-07-30T10:24:07.654Z,32.85
2018-07-30T10:26:36.967Z,33.30
2018-07-30T10:29:05.225Z,32.72
2018-07-30T10:31:33.524Z,32.73
2018-07-30T10:34:01.818Z,32.39
2018-07-30T10:36:30.197Z,31.81
2018-07-30T10:38:58.469Z,31.76
2018-07-30T10:41:26.799Z,31.47
2018-07-30T10:43:55.141Z,31.82
2018-07-30T10:46:23.443Z,31.99
2018-07-30T10:48:53.782Z,32.23
2018-07-30T10:51:22.149Z,32.06
2018-07-30T10:53:50.439Z,32.01
2018-07-30T10:56:18.724Z,32.75
2018-07-30T10:58:47.145Z,33.38
2018-07-30T11:01:18.966Z,33.81
2018-07-30T11:03:47.273Z,33.03
2018-07-30T11:06:15.545Z,32.61
2018-07-30T11:08:45.781Z,32.10
2018-07-30T11:11:14.099Z,32.35
2018-07-30T11:13:42.401Z,32.21
2018-07-30T11:16:10.681Z,32.55
2018-07-30T11:18:38.997Z,32.61
2018-07-30T11:21:07.396Z,31.62
2018-07-30T11:23:35.706Z,31.86
2018-07-30T11:26:03.948Z,31.94
2018-07-30T11:28:32.265Z,32.81
2018-07-30T11:31:00.542Z,32.53
2018-07-30T11:33:29.945Z,32.96
2018-07-30T11:35:58.216Z,32.88
2018-07-30T11:38:27.665Z,33.41
2018-07-30T11:40:57.014Z,33.70
2018-07-30T11:43:26.295Z,33.64
2018-07-30T11:45:54.594Z,33.07
2018-07-30T11:48:23.997Z,33.17
2018-07-30T11:50:53.290Z,32.84
2018-07-30T11:53:21.617Z,33.19
2018-07-30T11:55:49.906Z,32.94
2018-07-30T11:58:18.207Z,33.08
2018-07-30T12:00:46.488Z,32.88
2018-07-30T12:03:14.793Z,32.57
2018-07-30T12:05:43.070Z,33.45
2018-07-30T12:08:11.384Z,33.38
2018-07-30T12:10:39.689Z,32.81
2018-07-30T12:13:07.965Z,32.76
2018-07-30T12:15:36.307Z,32.82
2018-07-30T12:18:06.605Z,32.97
2018-07-30T12:20:34.900Z,33.01
2018-07-30T12:23:03.151Z,33.23
2018-07-30T12:25:31.479Z,33.39
2018-07-30T12:28:00.770Z,33.00
2018-07-30T12:30:29.167Z,33.30
2018-07-30T12:32:57.411Z,33.63
2018-07-30T12:35:25.701Z,33.76
2018-07-30T12:37:54.021Z,33.54
2018-07-30T12:40:22.336Z,33.76
2018-07-30T12:42:50.614Z,33.62
2018-07-30T12:45:24.201Z,33.56
2018-07-30T12:47:53.541Z,33.99
2018-07-30T12:50:21.856Z,34.14
2018-07-30T12:52:50.123Z,34.26
2018-07-30T12:55:20.428Z,34.27
2018-07-30T12:57:48.732Z,34.48
2018-07-30T13:00:17.045Z,33.41
2018-07-30T13:02:45.335Z,34.07
2018-07-30T13:05:13.617Z,33.83
2018-07-30T13:07:41.918Z,34.42
2018-07-30T13:10:11.205Z,34.41
2018-07-30T13:12:39.570Z,34.22
2018-07-30T13:15:08.096Z,33.52
2018-07-30T13:17:37.441Z,33.93
2018-07-30T13:20:07.808Z,34.49
2018-07-30T13:22:36.135Z,34.33
2018-07-30T13:25:04.853Z,34.12
2018-07-30T13:27:34.194Z,34.62
2018-07-30T13:30:02.469Z,34.08
2018-07-30T13:32:30.813Z,34.68
2018-07-30T13:34:59.052Z,34.92
2018-07-30T13:37:27.353Z,34.69
2018-07-30T13:39:55.634Z,34.56
2018-07-30T13:42:23.925Z,34.64
2018-07-30T13:44:52.245Z,35.43
2018-07-30T13:47:22.473Z,34.88
2018-07-30T13:49:50.790Z,34.23
2018-07-30T13:52:19.060Z,34.25
2018-07-30T13:54:47.397Z,33.22
2018-07-30T13:57:15.662Z,33.50
2018-07-30T13:59:43.975Z,33.85
2018-07-30T14:02:12.579Z,34.33
2018-07-30T14:04:40.853Z,36.45
2018-07-30T14:07:09.172Z,39.53
2018-07-30T14:09:39.524Z,41.86
2018-07-30T14:12:07.862Z,42.90
2018-07-30T14:14:36.194Z,44.34
2018-07-30T14:17:07.919Z,44.69
2018-07-30T14:19:36.187Z,44.64
2018-07-30T14:22:05.558Z,41.78
2018-07-30T14:24:33.908Z,42.61
2018-07-30T14:27:02.247Z,42.72
2018-07-30T14:29:31.548Z,44.63
2018-07-30T14:32:01.934Z,46.24
2018-07-30T14:34:31.247Z,46.83
2018-07-30T14:36:59.629Z,46.88
2018-07-30T14:39:27.915Z,47.19
2018-07-30T14:41:56.208Z,48.28
2018-07-30T14:44:24.485Z,47.90
2018-07-30T14:46:52.761Z,47.62
2018-07-30T14:49:23.313Z,48.04
2018-07-30T14:51:51.646Z,48.02
2018-07-30T14:54:19.947Z,46.93
2018-07-30T14:56:48.206Z,43.29
2018-07-30T14:59:16.560Z,41.35
2018-07-30T15:01:45.855Z,38.33
2018-07-30T15:04:14.140Z,34.69
2018-07-30T15:06:42.457Z,34.79
2018-07-30T15:09:16.085Z,33.28
2018-07-30T15:11:44.365Z,33.57
2018-07-30T15:14:12.696Z,35.84
2018-07-30T15:16:40.955Z,38.39
2018-07-30T15:19:09.335Z,36.75
2018-07-30T15:21:37.605Z,37.03
2018-07-30T15:24:05.963Z,34.79
2018-07-30T15:26:34.267Z,33.75
2018-07-30T15:29:02.664Z,33.29
2018-07-30T15:31:35.055Z,33.47
2018-07-30T15:34:07.281Z,34.89
2018-07-30T15:36:35.567Z,35.56
2018-07-30T15:39:11.348Z,35.84
2018-07-30T15:41:39.691Z,36.59
2018-07-30T15:44:07.966Z,37.96
2018-07-30T15:46:36.640Z,38.29
2018-07-30T15:49:04.903Z,40.88
2018-07-30T15:51:33.197Z,41.18
2018-07-30T15:54:01.579Z,42.34
2018-07-30T15:56:30.242Z,40.21
2018-07-30T15:58:58.742Z,37.66
2018-07-30T16:01:27.150Z,36.02
2018-07-30T16:03:55.537Z,34.72
2018-07-30T16:06:23.870Z,33.55
2018-07-30T16:08:52.156Z,33.51
2018-07-30T16:11:20.448Z,37.78
2018-07-30T16:13:48.724Z,38.58
2018-07-30T16:16:17.026Z,36.29
2018-07-30T16:18:45.296Z,34.52
2018-07-30T16:21:13.609Z,33.98
2018-07-30T16:23:41.909Z,33.25
2018-07-30T16:26:10.229Z,32.76
2018-07-30T16:28:38.494Z,32.92
2018-07-30T16:31:06.808Z,32.81
2018-07-30T16:33:36.199Z,32.97
2018-07-30T16:36:04.574Z,32.48
2018-07-30T16:38:33.944Z,34.22
2018-07-30T16:41:02.229Z,34.80
2018-07-30T16:43:30.649Z,35.18
2018-07-30T16:45:58.933Z,34.13
2018-07-30T16:48:27.205Z,34.26
2018-07-30T16:50:55.585Z,34.25
2018-07-30T16:53:23.913Z,35.50
2018-07-30T16:55:52.298Z,38.17
2018-07-30T16:58:20.600Z,39.33
2018-07-30T17:00:49.975Z,40.14
2018-07-30T17:03:18.301Z,41.06
2018-07-30T17:05:46.617Z,40.63
2018-07-30T17:08:15.009Z,41.68
2018-07-30T17:10:43.293Z,41.08
2018-07-30T17:13:11.621Z,40.92
2018-07-30T17:15:39.945Z,39.25
2018-07-30T17:18:08.211Z,36.56
2018-07-30T17:20:37.514Z,35.01
2018-07-30T17:23:06.006Z,33.83
2018-07-30T17:25:34.304Z,33.00
2018-07-30T17:28:02.613Z,32.32
2018-07-30T17:30:31.897Z,31.95
2018-07-30T17:33:00.213Z,31.45
2018-07-30T17:35:28.496Z,31.20
2018-07-30T17:37:56.824Z,30.97
2018-07-30T17:40:26.137Z,30.62
2018-07-30T17:42:54.421Z,30.35
2018-07-30T17:45:22.689Z,30.17
2018-07-30T17:47:50.981Z,30.01
2018-07-30T17:50:19.274Z,29.80
2018-07-30T17:52:49.577Z,29.67
2018-07-30T17:55:17.947Z,29.54
2018-07-30T17:57:48.268Z,29.56
2018-07-30T18:00:16.564Z,29.51
2018-07-30T18:02:44.822Z,29.56
2018-07-30T18:05:18.050Z,29.42
2018-07-30T18:07:47.676Z,29.27
2018-07-30T18:10:15.959Z,29.04
2018-07-30T18:12:44.390Z,29.11
2018-07-30T18:15:12.685Z,28.88
2018-07-30T18:17:40.953Z,28.86
2018-07-30T18:20:09.341Z,28.92
2018-07-30T18:22:37.637Z,28.90
2018-07-30T18:25:05.914Z,28.89
2018-07-30T18:27:34.248Z,28.79
2018-07-30T18:30:03.626Z,28.80
2018-07-30T18:32:31.896Z,28.72
2018-07-30T18:35:00.270Z,28.60
2018-07-30T18:37:30.713Z,28.59
2018-07-30T18:40:02.968Z,28.33
2018-07-30T18:42:31.241Z,28.31
2018-07-30T18:44:59.604Z,28.29
2018-07-30T18:47:28.000Z,28.13
2018-07-30T18:49:58.368Z,28.01
2018-07-30T18:52:26.700Z,27.87
2018-07-30T18:54:54.991Z,27.84
2018-07-30T18:57:23.297Z,27.75
2018-07-30T18:59:51.553Z,27.73
2018-07-30T19:02:19.927Z,27.70
2018-07-30T19:04:49.404Z,27.66
2018-07-30T19:07:17.616Z,27.61
2018-07-30T19:09:47.985Z,27.52
2018-07-30T19:12:19.770Z,27.41
2018-07-30T19:14:48.067Z,27.17
2018-07-30T19:17:16.340Z,27.08
2018-07-30T19:19:44.621Z,26.84
2018-07-30T19:22:12.893Z,26.89
2018-07-30T19:24:41.158Z,26.78
2018-07-30T19:27:09.428Z,26.77
2018-07-30T19:29:37.824Z,26.71
2018-07-30T19:32:06.124Z,27.07
2018-07-30T19:34:35.616Z,26.47
2018-07-30T19:37:03.983Z,26.41
2018-07-30T19:39:32.472Z,26.38
2018-07-30T19:42:02.869Z,26.32
2018-07-30T19:44:33.233Z,26.27
2018-07-30T19:47:02.509Z,26.15
2018-07-30T19:49:30.816Z,26.15
2018-07-30T19:51:59.115Z,26.11
2018-07-30T19:54:28.477Z,26.08
2018-07-30T19:56:56.754Z,26.12
2018-07-30T19:59:26.068Z,26.09
2018-07-30T20:01:54.328Z,26.08
2018-07-30T20:04:22.809Z,26.09
2018-07-30T20:06:51.231Z,26.08
2018-07-30T20:09:19.486Z,26.11
2018-07-30T20:11:48.429Z,26.10
2018-07-30T20:14:18.773Z,26.08
2018-07-30T20:16:47.033Z,26.03
2018-07-30T20:19:15.536Z,26.02
2018-07-30T20:21:43.821Z,26.01
2018-07-30T20:24:12.137Z,25.97
2018-07-30T20:26:40.432Z,25.95
2018-07-30T20:29:08.729Z,25.96
2018-07-30T20:31:38.053Z,26.00
2018-07-30T20:34:06.693Z,26.02
2018-07-30T20:36:34.976Z,26.01
2018-07-30T20:39:03.395Z,25.95
2018-07-30T20:41:31.692Z,25.99
2018-07-30T20:43:59.975Z,25.95
2018-07-30T20:46:28.400Z,25.96
2018-07-30T20:48:56.746Z,25.95
2018-07-30T20:51:25.077Z,25.90
2018-07-30T20:53:53.369Z,25.89
2018-07-30T20:56:21.668Z,25.80
2018-07-30T20:58:49.922Z,25.82
2018-07-30T21:01:18.242Z,25.90
2018-07-30T21:03:46.513Z,25.86
2018-07-30T21:06:14.817Z,25.76
2018-07-30T21:08:43.177Z,25.80
2018-07-30T21:11:11.469Z,25.78
2018-07-30T21:13:39.774Z,25.69
2018-07-30T21:16:08.063Z,25.74
2018-07-30T21:18:36.632Z,25.69
2018-07-30T21:21:04.982Z,25.67
2018-07-30T21:23:33.407Z,25.66
2018-07-30T21:26:01.661Z,25.66
2018-07-30T21:28:29.928Z,25.64
2018-07-30T21:30:58.294Z,25.66
2018-07-30T21:33:26.576Z,25.71
2018-07-30T21:35:55.853Z,25.71
2018-07-30T21:38:25.196Z,25.68
2018-07-30T21:40:53.536Z,25.70
2018-07-30T21:43:21.832Z,25.68
2018-07-30T21:45:50.122Z,25.70
2018-07-30T21:48:19.433Z,25.99
2018-07-30T21:50:47.700Z,25.84
2018-07-30T21:53:16.009Z,25.69
2018-07-30T21:55:44.280Z,25.65
2018-07-30T21:58:12.579Z,25.59
2018-07-30T22:00:45.001Z,25.59
2018-07-30T22:03:13.546Z,25.53
2018-07-30T22:05:41.822Z,25.48
2018-07-30T22:08:10.073Z,25.41
2018-07-30T22:10:38.377Z,25.42
2018-07-30T22:13:07.637Z,25.38
2018-07-30T22:15:35.905Z,25.30
2018-07-30T22:18:04.209Z,25.18
2018-07-30T22:20:32.551Z,25.21
2018-07-30T22:23:00.849Z,25.14
2018-07-30T22:25:29.165Z,25.09
2018-07-30T22:27:57.461Z,25.10
2018-07-30T22:30:25.769Z,25.09
2018-07-30T22:32:54.049Z,25.08
2018-07-30T22:35:22.344Z,25.09
2018-07-30T22:37:51.697Z,25.10
2018-07-30T22:40:20.007Z,25.09
2018-07-30T22:42:48.296Z,25.12
2018-07-30T22:45:16.590Z,25.12
2018-07-30T22:47:44.953Z,25.11
2018-07-30T22:50:13.269Z,25.16
2018-07-30T22:52:41.568Z,25.43
2018-07-30T22:55:09.846Z,25.36
2018-07-30T22:57:38.100Z,25.34
2018-07-30T23:00:06.842Z,25.30
2018-07-30T23:02:35.160Z,25.27
2018-07-30T23:05:03.621Z,25.36
2018-07-30T23:07:32.129Z,25.42
2018-07-30T23:10:00.606Z,25.50
2018-07-30T23:12:28.927Z,25.50
2018-07-30T23:14:58.271Z,25.59
2018-07-30T23:17:27.581Z,25.72
2018-07-30T23:19:55.846Z,25.70
2018-07-30T23:22:24.306Z,25.76
2018-07-30T23:24:52.569Z,25.73
2018-07-30T23:27:20.850Z,25.71
2018-07-30T23:29:53.366Z,25.77
2018-07-30T23:32:23.797Z,25.82
2018-07-30T23:34:52.073Z,25.76
2018-07-30T23:37:20.479Z,25.75
2018-07-30T23:39:48.655Z,25.71
2018-07-30T23:42:18.005Z,26.00
2018-07-30T23:44:46.614Z,25.85
2018-07-30T23:47:14.920Z,25.81
2018-07-30T23:49:43.181Z,25.79
2018-07-30T23:52:11.461Z,25.68
2018-07-30T23:54:39.725Z,25.68
2018-07-30T23:57:08.096Z,25.76
2018-07-30T23:59:36.341Z,25.80
